sensor_id;sensor_type;location;lat;lon;timestamp;P1;durP1;ratioP1;P2;durP2;ratioP2
15996;SDS011;8103;51.340;12.326;2024-03-07T00:00:24;38.28;;;20.02;;
15996;SDS011;8103;51.340;12.326;2024-03-07T00:02:52;31.10;;;19.13;;
15996;SDS011;8103;51.340;12.326;2024-03-07T00:05:19;36.22;;;19.55;;
15996;SDS011;8103;51.340;12.326;2024-03-07T00:07:47;34.08;;;19.27;;
15996;SDS011;8103;51.340;12.326;2024-03-07T00:10:14;33.42;;;19.85;;
15996;SDS011;8103;51.340;12.326;2024-03-07T00:12:42;33.60;;;19.33;;
15996;SDS011;8103;51.340;12.326;2024-03-07T00:15:09;35.63;;;19.50;;
15996;SDS011;8103;51.340;12.326;2024-03-07T00:17:37;36.00;;;21.10;;
15996;SDS011;8103;51.340;12.326;2024-03-07T00:20:05;34.65;;;20.75;;
15996;SDS011;8103;51.340;12.326;2024-03-07T00:22:41;26.52;;;17.73;;
15996;SDS011;8103;51.340;12.326;2024-03-07T00:25:08;37.42;;;22.00;;
15996;SDS011;8103;51.340;12.326;2024-03-07T00:27:35;42.65;;;21.48;;
15996;SDS011;8103;51.340;12.326;2024-03-07T00:30:03;43.33;;;22.08;;
15996;SDS011;8103;51.340;12.326;2024-03-07T00:32:31;38.55;;;21.90;;
15996;SDS011;8103;51.340;12.326;2024-03-07T00:35:02;35.00;;;21.83;;
15996;SDS011;8103;51.340;12.326;2024-03-07T00:37:31;38.30;;;21.83;;
15996;SDS011;8103;51.340;12.326;2024-03-07T00:39:58;38.42;;;21.08;;
15996;SDS011;8103;51.340;12.326;2024-03-07T00:42:25;40.75;;;23.38;;
15996;SDS011;8103;51.340;12.326;2024-03-07T00:44:53;43.25;;;24.15;;
15996;SDS011;8103;51.340;12.326;2024-03-07T00:47:20;41.83;;;23.00;;
15996;SDS011;8103;51.340;12.326;2024-03-07T00:49:46;38.63;;;22.70;;
15996;SDS011;8103;51.340;12.326;2024-03-07T00:52:13;39.05;;;23.92;;
15996;SDS011;8103;51.340;12.326;2024-03-07T00:54:42;44.30;;;24.52;;
15996;SDS011;8103;51.340;12.326;2024-03-07T00:57:09;49.65;;;26.33;;
15996;SDS011;8103;51.340;12.326;2024-03-07T00:59:35;46.38;;;25.05;;
15996;SDS011;8103;51.340;12.326;2024-03-07T01:02:02;44.30;;;22.75;;
15996;SDS011;8103;51.340;12.326;2024-03-07T01:04:30;45.50;;;24.35;;
15996;SDS011;8103;51.340;12.326;2024-03-07T01:07:00;49.45;;;25.85;;
15996;SDS011;8103;51.340;12.326;2024-03-07T01:09:27;45.50;;;25.60;;
15996;SDS011;8103;51.340;12.326;2024-03-07T01:11:54;54.80;;;27.45;;
15996;SDS011;8103;51.340;12.326;2024-03-07T01:14:22;54.47;;;27.27;;
15996;SDS011;8103;51.340;12.326;2024-03-07T01:16:49;51.15;;;26.35;;
15996;SDS011;8103;51.340;12.326;2024-03-07T01:19:15;57.45;;;27.58;;
15996;SDS011;8103;51.340;12.326;2024-03-07T01:21:42;53.67;;;26.30;;
15996;SDS011;8103;51.340;12.326;2024-03-07T01:24:09;52.97;;;28.10;;
15996;SDS011;8103;51.340;12.326;2024-03-07T01:26:35;51.55;;;27.67;;
15996;SDS011;8103;51.340;12.326;2024-03-07T01:29:02;51.25;;;27.23;;
15996;SDS011;8103;51.340;12.326;2024-03-07T01:31:30;44.05;;;25.08;;
15996;SDS011;8103;51.340;12.326;2024-03-07T01:33:57;47.78;;;27.02;;
15996;SDS011;8103;51.340;12.326;2024-03-07T01:36:24;49.25;;;25.30;;
15996;SDS011;8103;51.340;12.326;2024-03-07T01:38:50;54.08;;;29.02;;
15996;SDS011;8103;51.340;12.326;2024-03-07T01:41:18;47.55;;;28.00;;
15996;SDS011;8103;51.340;12.326;2024-03-07T01:43:45;50.17;;;28.65;;
15996;SDS011;8103;51.340;12.326;2024-03-07T01:46:12;50.15;;;28.15;;
15996;SDS011;8103;51.340;12.326;2024-03-07T01:48:39;56.13;;;29.90;;
15996;SDS011;8103;51.340;12.326;2024-03-07T01:51:06;44.15;;;28.10;;
15996;SDS011;8103;51.340;12.326;2024-03-07T01:53:33;50.10;;;27.92;;
15996;SDS011;8103;51.340;12.326;2024-03-07T01:56:01;55.70;;;29.50;;
15996;SDS011;8103;51.340;12.326;2024-03-07T01:58:30;54.05;;;28.75;;
15996;SDS011;8103;51.340;12.326;2024-03-07T02:01:00;55.17;;;29.52;;
15996;SDS011;8103;51.340;12.326;2024-03-07T02:03:27;54.38;;;30.25;;
15996;SDS011;8103;51.340;12.326;2024-03-07T02:05:55;59.65;;;30.30;;
15996;SDS011;8103;51.340;12.326;2024-03-07T02:08:23;56.63;;;30.33;;
15996;SDS011;8103;51.340;12.326;2024-03-07T02:10:50;58.15;;;31.95;;
15996;SDS011;8103;51.340;12.326;2024-03-07T02:13:17;62.10;;;33.08;;
15996;SDS011;8103;51.340;12.326;2024-03-07T02:15:44;60.72;;;30.85;;
15996;SDS011;8103;51.340;12.326;2024-03-07T02:18:11;65.22;;;32.75;;
15996;SDS011;8103;51.340;12.326;2024-03-07T02:20:37;57.55;;;30.88;;
15996;SDS011;8103;51.340;12.326;2024-03-07T02:23:08;58.13;;;31.00;;
15996;SDS011;8103;51.340;12.326;2024-03-07T02:25:35;56.83;;;31.83;;
15996;SDS011;8103;51.340;12.326;2024-03-07T02:28:04;59.67;;;29.88;;
15996;SDS011;8103;51.340;12.326;2024-03-07T02:30:31;56.70;;;29.77;;
15996;SDS011;8103;51.340;12.326;2024-03-07T02:32:58;53.30;;;29.67;;
15996;SDS011;8103;51.340;12.326;2024-03-07T02:35:33;60.38;;;31.40;;
15996;SDS011;8103;51.340;12.326;2024-03-07T02:38:02;58.00;;;30.05;;
15996;SDS011;8103;51.340;12.326;2024-03-07T02:40:29;54.83;;;29.85;;
15996;SDS011;8103;51.340;12.326;2024-03-07T02:42:56;62.00;;;32.00;;
15996;SDS011;8103;51.340;12.326;2024-03-07T02:45:24;59.85;;;31.55;;
15996;SDS011;8103;51.340;12.326;2024-03-07T02:47:51;52.80;;;28.75;;
15996;SDS011;8103;51.340;12.326;2024-03-07T02:50:20;53.22;;;31.98;;
15996;SDS011;8103;51.340;12.326;2024-03-07T02:52:48;51.67;;;30.02;;
15996;SDS011;8103;51.340;12.326;2024-03-07T02:55:16;62.38;;;35.45;;
15996;SDS011;8103;51.340;12.326;2024-03-07T02:57:42;60.00;;;31.00;;
15996;SDS011;8103;51.340;12.326;2024-03-07T03:00:09;49.00;;;28.95;;
15996;SDS011;8103;51.340;12.326;2024-03-07T03:02:46;51.92;;;30.80;;
15996;SDS011;8103;51.340;12.326;2024-03-07T03:05:14;67.00;;;33.08;;
15996;SDS011;8103;51.340;12.326;2024-03-07T03:07:41;53.90;;;27.80;;
15996;SDS011;8103;51.340;12.326;2024-03-07T03:10:08;48.33;;;28.85;;
15996;SDS011;8103;51.340;12.326;2024-03-07T03:12:37;49.15;;;26.63;;
15996;SDS011;8103;51.340;12.326;2024-03-07T03:15:06;53.05;;;28.38;;
15996;SDS011;8103;51.340;12.326;2024-03-07T03:17:33;49.05;;;29.58;;
15996;SDS011;8103;51.340;12.326;2024-03-07T03:20:01;43.80;;;26.83;;
15996;SDS011;8103;51.340;12.326;2024-03-07T03:22:29;50.58;;;26.65;;
15996;SDS011;8103;51.340;12.326;2024-03-07T03:24:56;44.05;;;26.42;;
15996;SDS011;8103;51.340;12.326;2024-03-07T03:27:23;49.25;;;29.17;;
15996;SDS011;8103;51.340;12.326;2024-03-07T03:29:49;67.65;;;31.80;;
15996;SDS011;8103;51.340;12.326;2024-03-07T03:32:17;53.25;;;27.77;;
15996;SDS011;8103;51.340;12.326;2024-03-07T03:34:43;51.53;;;30.10;;
15996;SDS011;8103;51.340;12.326;2024-03-07T03:37:10;57.03;;;31.77;;
15996;SDS011;8103;51.340;12.326;2024-03-07T03:39:37;56.90;;;29.80;;
15996;SDS011;8103;51.340;12.326;2024-03-07T03:42:04;56.75;;;28.05;;
15996;SDS011;8103;51.340;12.326;2024-03-07T03:44:33;73.88;;;34.90;;
15996;SDS011;8103;51.340;12.326;2024-03-07T03:47:00;56.92;;;30.08;;
15996;SDS011;8103;51.340;12.326;2024-03-07T03:49:28;68.53;;;33.95;;
15996;SDS011;8103;51.340;12.326;2024-03-07T03:51:54;61.33;;;32.15;;
15996;SDS011;8103;51.340;12.326;2024-03-07T03:54:21;55.05;;;29.23;;
15996;SDS011;8103;51.340;12.326;2024-03-07T03:56:48;61.05;;;30.42;;
15996;SDS011;8103;51.340;12.326;2024-03-07T03:59:15;55.88;;;28.05;;
15996;SDS011;8103;51.340;12.326;2024-03-07T04:01:42;58.05;;;28.45;;
15996;SDS011;8103;51.340;12.326;2024-03-07T04:04:08;52.83;;;28.67;;
15996;SDS011;8103;51.340;12.326;2024-03-07T04:06:35;55.90;;;29.05;;
15996;SDS011;8103;51.340;12.326;2024-03-07T04:09:02;53.08;;;26.45;;
15996;SDS011;8103;51.340;12.326;2024-03-07T04:11:30;50.92;;;26.63;;
15996;SDS011;8103;51.340;12.326;2024-03-07T04:13:57;48.75;;;28.35;;
15996;SDS011;8103;51.340;12.326;2024-03-07T04:16:24;56.75;;;27.70;;
15996;SDS011;8103;51.340;12.326;2024-03-07T04:18:52;54.60;;;28.85;;
15996;SDS011;8103;51.340;12.326;2024-03-07T04:21:19;47.00;;;27.48;;
15996;SDS011;8103;51.340;12.326;2024-03-07T04:23:46;53.80;;;28.40;;
15996;SDS011;8103;51.340;12.326;2024-03-07T04:26:12;51.38;;;26.55;;
15996;SDS011;8103;51.340;12.326;2024-03-07T04:28:39;49.38;;;28.33;;
15996;SDS011;8103;51.340;12.326;2024-03-07T04:31:06;53.45;;;28.25;;
15996;SDS011;8103;51.340;12.326;2024-03-07T04:33:33;50.30;;;26.60;;
15996;SDS011;8103;51.340;12.326;2024-03-07T04:35:59;48.22;;;24.92;;
15996;SDS011;8103;51.340;12.326;2024-03-07T04:38:29;50.45;;;27.33;;
15996;SDS011;8103;51.340;12.326;2024-03-07T04:40:55;49.80;;;25.83;;
15996;SDS011;8103;51.340;12.326;2024-03-07T04:43:22;49.63;;;26.30;;
15996;SDS011;8103;51.340;12.326;2024-03-07T04:45:49;50.05;;;27.33;;
15996;SDS011;8103;51.340;12.326;2024-03-07T04:48:16;42.88;;;24.63;;
15996;SDS011;8103;51.340;12.326;2024-03-07T04:50:42;48.15;;;26.15;;
15996;SDS011;8103;51.340;12.326;2024-03-07T04:53:09;46.63;;;25.67;;
15996;SDS011;8103;51.340;12.326;2024-03-07T04:55:36;46.47;;;24.90;;
15996;SDS011;8103;51.340;12.326;2024-03-07T04:58:02;46.72;;;25.80;;
15996;SDS011;8103;51.340;12.326;2024-03-07T05:00:29;50.15;;;28.05;;
15996;SDS011;8103;51.340;12.326;2024-03-07T05:02:57;43.75;;;25.25;;
15996;SDS011;8103;51.340;12.326;2024-03-07T05:05:23;44.47;;;25.77;;
15996;SDS011;8103;51.340;12.326;2024-03-07T05:07:52;43.55;;;24.27;;
15996;SDS011;8103;51.340;12.326;2024-03-07T05:10:19;39.97;;;24.05;;
15996;SDS011;8103;51.340;12.326;2024-03-07T05:12:46;45.03;;;24.85;;
15996;SDS011;8103;51.340;12.326;2024-03-07T05:15:13;43.15;;;23.75;;
15996;SDS011;8103;51.340;12.326;2024-03-07T05:17:41;50.50;;;26.77;;
15996;SDS011;8103;51.340;12.326;2024-03-07T05:20:10;46.33;;;24.83;;
15996;SDS011;8103;51.340;12.326;2024-03-07T05:22:39;38.72;;;25.63;;
15996;SDS011;8103;51.340;12.326;2024-03-07T05:25:16;39.00;;;25.83;;
15996;SDS011;8103;51.340;12.326;2024-03-07T05:27:45;38.25;;;24.92;;
15996;SDS011;8103;51.340;12.326;2024-03-07T05:30:12;40.42;;;25.50;;
15996;SDS011;8103;51.340;12.326;2024-03-07T05:32:39;39.88;;;25.80;;
15996;SDS011;8103;51.340;12.326;2024-03-07T05:35:06;38.95;;;25.30;;
15996;SDS011;8103;51.340;12.326;2024-03-07T05:37:33;44.58;;;26.90;;
15996;SDS011;8103;51.340;12.326;2024-03-07T05:40:00;35.75;;;25.25;;
15996;SDS011;8103;51.340;12.326;2024-03-07T05:42:29;40.33;;;24.33;;
15996;SDS011;8103;51.340;12.326;2024-03-07T05:44:57;37.70;;;25.33;;
15996;SDS011;8103;51.340;12.326;2024-03-07T05:47:24;35.70;;;22.52;;
15996;SDS011;8103;51.340;12.326;2024-03-07T05:49:51;38.72;;;25.02;;
15996;SDS011;8103;51.340;12.326;2024-03-07T05:52:17;38.40;;;24.70;;
15996;SDS011;8103;51.340;12.326;2024-03-07T05:54:44;41.00;;;23.85;;
15996;SDS011;8103;51.340;12.326;2024-03-07T05:57:11;36.70;;;23.48;;
15996;SDS011;8103;51.340;12.326;2024-03-07T05:59:38;37.10;;;24.30;;
15996;SDS011;8103;51.340;12.326;2024-03-07T06:02:05;35.17;;;23.13;;
15996;SDS011;8103;51.340;12.326;2024-03-07T06:04:32;37.83;;;24.23;;
15996;SDS011;8103;51.340;12.326;2024-03-07T06:07:00;37.80;;;24.10;;
15996;SDS011;8103;51.340;12.326;2024-03-07T06:09:27;32.35;;;21.75;;
15996;SDS011;8103;51.340;12.326;2024-03-07T06:11:53;34.30;;;23.88;;
15996;SDS011;8103;51.340;12.326;2024-03-07T06:14:20;35.20;;;23.30;;
15996;SDS011;8103;51.340;12.326;2024-03-07T06:16:50;32.97;;;23.30;;
15996;SDS011;8103;51.340;12.326;2024-03-07T06:19:18;35.67;;;23.13;;
15996;SDS011;8103;51.340;12.326;2024-03-07T06:21:45;36.97;;;24.60;;
15996;SDS011;8103;51.340;12.326;2024-03-07T06:24:12;33.17;;;22.25;;
15996;SDS011;8103;51.340;12.326;2024-03-07T06:26:41;36.30;;;21.95;;
15996;SDS011;8103;51.340;12.326;2024-03-07T06:29:11;41.22;;;23.45;;
15996;SDS011;8103;51.340;12.326;2024-03-07T06:31:42;34.70;;;22.88;;
15996;SDS011;8103;51.340;12.326;2024-03-07T06:34:09;42.58;;;24.77;;
15996;SDS011;8103;51.340;12.326;2024-03-07T06:36:35;33.83;;;23.90;;
15996;SDS011;8103;51.340;12.326;2024-03-07T06:39:02;38.10;;;25.70;;
15996;SDS011;8103;51.340;12.326;2024-03-07T06:41:33;39.33;;;24.10;;
15996;SDS011;8103;51.340;12.326;2024-03-07T06:44:00;43.60;;;25.08;;
15996;SDS011;8103;51.340;12.326;2024-03-07T06:46:28;37.13;;;24.65;;
15996;SDS011;8103;51.340;12.326;2024-03-07T06:48:55;38.60;;;24.33;;
15996;SDS011;8103;51.340;12.326;2024-03-07T06:51:23;40.35;;;23.58;;
15996;SDS011;8103;51.340;12.326;2024-03-07T06:53:51;32.72;;;22.23;;
15996;SDS011;8103;51.340;12.326;2024-03-07T06:56:18;41.20;;;23.42;;
15996;SDS011;8103;51.340;12.326;2024-03-07T06:58:45;34.17;;;21.80;;
15996;SDS011;8103;51.340;12.326;2024-03-07T07:01:12;33.45;;;23.08;;
15996;SDS011;8103;51.340;12.326;2024-03-07T07:03:41;35.05;;;23.52;;
15996;SDS011;8103;51.340;12.326;2024-03-07T07:06:12;36.28;;;23.73;;
15996;SDS011;8103;51.340;12.326;2024-03-07T07:08:38;34.58;;;22.25;;
15996;SDS011;8103;51.340;12.326;2024-03-07T07:11:05;32.35;;;21.73;;
15996;SDS011;8103;51.340;12.326;2024-03-07T07:13:32;34.08;;;20.40;;
15996;SDS011;8103;51.340;12.326;2024-03-07T07:15:59;31.08;;;20.83;;
15996;SDS011;8103;51.340;12.326;2024-03-07T07:18:27;33.10;;;21.75;;
15996;SDS011;8103;51.340;12.326;2024-03-07T07:20:54;27.88;;;18.55;;
15996;SDS011;8103;51.340;12.326;2024-03-07T07:23:22;25.48;;;19.25;;
15996;SDS011;8103;51.340;12.326;2024-03-07T07:25:49;27.80;;;20.25;;
15996;SDS011;8103;51.340;12.326;2024-03-07T07:28:16;30.17;;;18.85;;
15996;SDS011;8103;51.340;12.326;2024-03-07T07:30:43;34.65;;;18.90;;
15996;SDS011;8103;51.340;12.326;2024-03-07T07:33:11;26.20;;;17.85;;
15996;SDS011;8103;51.340;12.326;2024-03-07T07:35:38;28.00;;;18.70;;
15996;SDS011;8103;51.340;12.326;2024-03-07T07:38:05;27.10;;;17.40;;
15996;SDS011;8103;51.340;12.326;2024-03-07T07:40:33;27.48;;;16.52;;
15996;SDS011;8103;51.340;12.326;2024-03-07T07:43:00;25.85;;;15.60;;
15996;SDS011;8103;51.340;12.326;2024-03-07T07:45:27;24.85;;;16.75;;
15996;SDS011;8103;51.340;12.326;2024-03-07T07:47:54;22.70;;;14.45;;
15996;SDS011;8103;51.340;12.326;2024-03-07T07:50:22;19.38;;;13.75;;
15996;SDS011;8103;51.340;12.326;2024-03-07T07:52:51;21.52;;;12.98;;
15996;SDS011;8103;51.340;12.326;2024-03-07T07:55:23;19.08;;;12.25;;
15996;SDS011;8103;51.340;12.326;2024-03-07T07:57:57;21.92;;;12.13;;
15996;SDS011;8103;51.340;12.326;2024-03-07T08:00:26;18.33;;;11.65;;
15996;SDS011;8103;51.340;12.326;2024-03-07T08:02:59;18.02;;;12.60;;
15996;SDS011;8103;51.340;12.326;2024-03-07T08:05:30;16.35;;;11.77;;
15996;SDS011;8103;51.340;12.326;2024-03-07T08:07:59;17.30;;;11.57;;
15996;SDS011;8103;51.340;12.326;2024-03-07T08:10:36;18.67;;;11.30;;
15996;SDS011;8103;51.340;12.326;2024-03-07T08:13:04;15.43;;;9.80;;
15996;SDS011;8103;51.340;12.326;2024-03-07T08:15:39;13.43;;;9.52;;
15996;SDS011;8103;51.340;12.326;2024-03-07T08:18:05;15.55;;;10.10;;
15996;SDS011;8103;51.340;12.326;2024-03-07T08:20:36;18.30;;;10.40;;
15996;SDS011;8103;51.340;12.326;2024-03-07T08:23:04;11.93;;;9.73;;
15996;SDS011;8103;51.340;12.326;2024-03-07T08:25:30;13.48;;;9.25;;
15996;SDS011;8103;51.340;12.326;2024-03-07T08:27:57;13.80;;;8.93;;
15996;SDS011;8103;51.340;12.326;2024-03-07T08:30:25;10.40;;;8.15;;
15996;SDS011;8103;51.340;12.326;2024-03-07T08:32:55;15.50;;;10.07;;
15996;SDS011;8103;51.340;12.326;2024-03-07T08:35:23;16.92;;;10.13;;
15996;SDS011;8103;51.340;12.326;2024-03-07T08:37:52;15.43;;;11.07;;
15996;SDS011;8103;51.340;12.326;2024-03-07T08:40:20;18.50;;;11.20;;
15996;SDS011;8103;51.340;12.326;2024-03-07T08:42:52;17.38;;;10.00;;
15996;SDS011;8103;51.340;12.326;2024-03-07T08:45:23;21.52;;;12.05;;
15996;SDS011;8103;51.340;12.326;2024-03-07T08:47:55;15.80;;;10.68;;
15996;SDS011;8103;51.340;12.326;2024-03-07T08:50:24;15.23;;;11.05;;
15996;SDS011;8103;51.340;12.326;2024-03-07T08:52:52;17.23;;;10.80;;
15996;SDS011;8103;51.340;12.326;2024-03-07T08:55:20;12.20;;;9.07;;
15996;SDS011;8103;51.340;12.326;2024-03-07T08:57:48;12.95;;;9.02;;
15996;SDS011;8103;51.340;12.326;2024-03-07T09:00:16;14.55;;;9.02;;
15996;SDS011;8103;51.340;12.326;2024-03-07T09:02:56;15.05;;;9.35;;
15996;SDS011;8103;51.340;12.326;2024-03-07T09:05:25;11.43;;;8.40;;
15996;SDS011;8103;51.340;12.326;2024-03-07T09:07:53;13.25;;;8.13;;
15996;SDS011;8103;51.340;12.326;2024-03-07T09:14:08;14.45;;;8.27;;
15996;SDS011;8103;51.340;12.326;2024-03-07T09:16:35;13.93;;;8.63;;
15996;SDS011;8103;51.340;12.326;2024-03-07T09:19:02;15.75;;;8.07;;
15996;SDS011;8103;51.340;12.326;2024-03-07T09:21:29;11.85;;;8.02;;
15996;SDS011;8103;51.340;12.326;2024-03-07T09:23:55;11.65;;;7.97;;
15996;SDS011;8103;51.340;12.326;2024-03-07T09:26:22;11.50;;;7.10;;
15996;SDS011;8103;51.340;12.326;2024-03-07T09:28:49;10.13;;;7.32;;
15996;SDS011;8103;51.340;12.326;2024-03-07T09:31:16;13.02;;;7.13;;
15996;SDS011;8103;51.340;12.326;2024-03-07T09:33:43;11.68;;;7.57;;
15996;SDS011;8103;51.340;12.326;2024-03-07T09:36:09;9.10;;;7.13;;
15996;SDS011;8103;51.340;12.326;2024-03-07T09:38:36;11.43;;;7.20;;
15996;SDS011;8103;51.340;12.326;2024-03-07T09:41:03;10.05;;;8.18;;
15996;SDS011;8103;51.340;12.326;2024-03-07T09:43:30;9.52;;;6.45;;
15996;SDS011;8103;51.340;12.326;2024-03-07T09:45:59;10.95;;;7.00;;
15996;SDS011;8103;51.340;12.326;2024-03-07T09:48:29;9.13;;;7.07;;
15996;SDS011;8103;51.340;12.326;2024-03-07T09:50:56;10.45;;;7.75;;
15996;SDS011;8103;51.340;12.326;2024-03-07T09:53:26;9.13;;;7.15;;
15996;SDS011;8103;51.340;12.326;2024-03-07T09:55:53;11.25;;;6.78;;
15996;SDS011;8103;51.340;12.326;2024-03-07T09:58:20;8.60;;;7.10;;
15996;SDS011;8103;51.340;12.326;2024-03-07T10:00:49;9.05;;;7.25;;
15996;SDS011;8103;51.340;12.326;2024-03-07T10:03:17;12.23;;;7.80;;
15996;SDS011;8103;51.340;12.326;2024-03-07T10:05:48;10.80;;;8.02;;
15996;SDS011;8103;51.340;12.326;2024-03-07T10:08:16;10.63;;;7.38;;
15996;SDS011;8103;51.340;12.326;2024-03-07T10:10:44;9.93;;;7.60;;
15996;SDS011;8103;51.340;12.326;2024-03-07T10:13:13;13.25;;;7.70;;
15996;SDS011;8103;51.340;12.326;2024-03-07T10:15:40;8.95;;;7.28;;
15996;SDS011;8103;51.340;12.326;2024-03-07T10:18:09;9.32;;;7.47;;
15996;SDS011;8103;51.340;12.326;2024-03-07T10:20:36;10.13;;;8.38;;
15996;SDS011;8103;51.340;12.326;2024-03-07T10:23:03;10.98;;;8.00;;
15996;SDS011;8103;51.340;12.326;2024-03-07T10:25:30;12.10;;;7.20;;
15996;SDS011;8103;51.340;12.326;2024-03-07T10:27:57;8.50;;;7.38;;
15996;SDS011;8103;51.340;12.326;2024-03-07T10:30:24;13.55;;;7.68;;
15996;SDS011;8103;51.340;12.326;2024-03-07T10:32:52;14.68;;;7.47;;
15996;SDS011;8103;51.340;12.326;2024-03-07T10:35:26;10.68;;;8.02;;
15996;SDS011;8103;51.340;12.326;2024-03-07T10:37:54;10.75;;;8.48;;
15996;SDS011;8103;51.340;12.326;2024-03-07T10:40:22;13.68;;;10.35;;
15996;SDS011;8103;51.340;12.326;2024-03-07T10:42:56;11.90;;;8.70;;
15996;SDS011;8103;51.340;12.326;2024-03-07T10:45:24;10.98;;;7.60;;
15996;SDS011;8103;51.340;12.326;2024-03-07T10:47:55;10.88;;;7.70;;
15996;SDS011;8103;51.340;12.326;2024-03-07T10:50:30;9.43;;;7.60;;
15996;SDS011;8103;51.340;12.326;2024-03-07T10:53:12;11.85;;;8.35;;
15996;SDS011;8103;51.340;12.326;2024-03-07T11:01:17;11.80;;;7.80;;
15996;SDS011;8103;51.340;12.326;2024-03-07T11:03:46;11.25;;;9.13;;
15996;SDS011;8103;51.340;12.326;2024-03-07T11:06:13;11.60;;;8.95;;
15996;SDS011;8103;51.340;12.326;2024-03-07T11:08:42;11.85;;;9.00;;
15996;SDS011;8103;51.340;12.326;2024-03-07T11:11:10;9.63;;;8.38;;
15996;SDS011;8103;51.340;12.326;2024-03-07T11:13:37;11.73;;;8.45;;
15996;SDS011;8103;51.340;12.326;2024-03-07T11:16:05;11.23;;;9.05;;
15996;SDS011;8103;51.340;12.326;2024-03-07T11:18:33;11.50;;;8.43;;
15996;SDS011;8103;51.340;12.326;2024-03-07T11:21:00;12.05;;;9.57;;
15996;SDS011;8103;51.340;12.326;2024-03-07T11:23:27;11.40;;;8.82;;
15996;SDS011;8103;51.340;12.326;2024-03-07T11:26:08;9.73;;;8.57;;
15996;SDS011;8103;51.340;12.326;2024-03-07T11:28:36;11.98;;;8.43;;
15996;SDS011;8103;51.340;12.326;2024-03-07T11:31:08;12.32;;;8.80;;
15996;SDS011;8103;51.340;12.326;2024-03-07T11:33:38;11.70;;;8.77;;
15996;SDS011;8103;51.340;12.326;2024-03-07T11:36:10;9.70;;;8.68;;
15996;SDS011;8103;51.340;12.326;2024-03-07T11:38:44;10.80;;;8.63;;
15996;SDS011;8103;51.340;12.326;2024-03-07T11:41:12;12.05;;;10.00;;
15996;SDS011;8103;51.340;12.326;2024-03-07T11:43:42;10.68;;;8.85;;
15996;SDS011;8103;51.340;12.326;2024-03-07T11:46:10;9.40;;;8.23;;
15996;SDS011;8103;51.340;12.326;2024-03-07T11:48:43;11.25;;;8.65;;
15996;SDS011;8103;51.340;12.326;2024-03-07T11:51:13;11.40;;;8.23;;
15996;SDS011;8103;51.340;12.326;2024-03-07T11:53:41;9.65;;;8.48;;
15996;SDS011;8103;51.340;12.326;2024-03-07T11:56:09;13.02;;;9.52;;
15996;SDS011;8103;51.340;12.326;2024-03-07T11:58:39;10.85;;;9.10;;
15996;SDS011;8103;51.340;12.326;2024-03-07T12:01:06;11.95;;;9.63;;
15996;SDS011;8103;51.340;12.326;2024-03-07T12:03:37;13.95;;;10.10;;
15996;SDS011;8103;51.340;12.326;2024-03-07T12:06:04;12.38;;;8.70;;
15996;SDS011;8103;51.340;12.326;2024-03-07T12:08:31;12.23;;;9.05;;
15996;SDS011;8103;51.340;12.326;2024-03-07T12:10:58;10.90;;;9.43;;
15996;SDS011;8103;51.340;12.326;2024-03-07T12:13:25;13.70;;;10.32;;
15996;SDS011;8103;51.340;12.326;2024-03-07T12:15:53;11.88;;;9.50;;
15996;SDS011;8103;51.340;12.326;2024-03-07T12:18:23;13.85;;;9.10;;
15996;SDS011;8103;51.340;12.326;2024-03-07T12:20:51;13.43;;;9.35;;
15996;SDS011;8103;51.340;12.326;2024-03-07T12:23:22;12.20;;;9.32;;
15996;SDS011;8103;51.340;12.326;2024-03-07T12:26:03;12.23;;;10.15;;
15996;SDS011;8103;51.340;12.326;2024-03-07T12:28:31;11.63;;;9.45;;
15996;SDS011;8103;51.340;12.326;2024-03-07T12:31:01;14.77;;;10.13;;
15996;SDS011;8103;51.340;12.326;2024-03-07T12:33:28;11.63;;;9.48;;
15996;SDS011;8103;51.340;12.326;2024-03-07T12:36:01;14.30;;;10.60;;
15996;SDS011;8103;51.340;12.326;2024-03-07T12:38:36;15.75;;;10.90;;
15996;SDS011;8103;51.340;12.326;2024-03-07T12:41:06;15.25;;;10.35;;
15996;SDS011;8103;51.340;12.326;2024-03-07T12:43:34;15.50;;;9.68;;
15996;SDS011;8103;51.340;12.326;2024-03-07T12:46:01;11.27;;;9.13;;
15996;SDS011;8103;51.340;12.326;2024-03-07T12:48:31;12.07;;;9.20;;
15996;SDS011;8103;51.340;12.326;2024-03-07T12:50:58;13.98;;;9.35;;
15996;SDS011;8103;51.340;12.326;2024-03-07T12:53:27;13.50;;;10.27;;
15996;SDS011;8103;51.340;12.326;2024-03-07T12:55:55;13.65;;;10.30;;
15996;SDS011;8103;51.340;12.326;2024-03-07T12:58:22;10.57;;;8.85;;
15996;SDS011;8103;51.340;12.326;2024-03-07T13:00:52;13.68;;;9.40;;
15996;SDS011;8103;51.340;12.326;2024-03-07T13:03:22;13.27;;;9.18;;
15996;SDS011;8103;51.340;12.326;2024-03-07T13:05:54;10.65;;;9.55;;
15996;SDS011;8103;51.340;12.326;2024-03-07T13:08:21;12.32;;;10.15;;
15996;SDS011;8103;51.340;12.326;2024-03-07T13:10:52;12.77;;;9.65;;
15996;SDS011;8103;51.340;12.326;2024-03-07T13:13:21;13.65;;;10.00;;
15996;SDS011;8103;51.340;12.326;2024-03-07T13:15:49;10.77;;;9.25;;
15996;SDS011;8103;51.340;12.326;2024-03-07T13:18:17;10.45;;;9.15;;
15996;SDS011;8103;51.340;12.326;2024-03-07T13:20:44;10.68;;;9.57;;
15996;SDS011;8103;51.340;12.326;2024-03-07T13:23:12;12.85;;;10.35;;
15996;SDS011;8103;51.340;12.326;2024-03-07T13:25:39;9.95;;;8.90;;
15996;SDS011;8103;51.340;12.326;2024-03-07T13:28:09;9.82;;;8.82;;
15996;SDS011;8103;51.340;12.326;2024-03-07T13:30:40;11.00;;;9.90;;
15996;SDS011;8103;51.340;12.326;2024-03-07T13:33:07;12.48;;;10.70;;
15996;SDS011;8103;51.340;12.326;2024-03-07T13:35:39;15.10;;;9.80;;
15996;SDS011;8103;51.340;12.326;2024-03-07T13:38:07;11.73;;;9.88;;
15996;SDS011;8103;51.340;12.326;2024-03-07T13:40:34;15.48;;;10.52;;
15996;SDS011;8103;51.340;12.326;2024-03-07T13:43:05;12.85;;;10.27;;
15996;SDS011;8103;51.340;12.326;2024-03-07T13:45:33;13.38;;;10.48;;
15996;SDS011;8103;51.340;12.326;2024-03-07T13:48:06;11.27;;;9.32;;
15996;SDS011;8103;51.340;12.326;2024-03-07T13:50:34;14.70;;;9.38;;
15996;SDS011;8103;51.340;12.326;2024-03-07T13:53:11;11.20;;;8.45;;
15996;SDS011;8103;51.340;12.326;2024-03-07T13:58:24;11.48;;;9.57;;
15996;SDS011;8103;51.340;12.326;2024-03-07T14:18:33;13.80;;;10.90;;
15996;SDS011;8103;51.340;12.326;2024-03-07T14:21:29;16.73;;;9.80;;
15996;SDS011;8103;51.340;12.326;2024-03-07T14:29:39;11.15;;;9.70;;
15996;SDS011;8103;51.340;12.326;2024-03-07T14:32:15;13.32;;;10.38;;
15996;SDS011;8103;51.340;12.326;2024-03-07T14:34:47;12.20;;;10.32;;
15996;SDS011;8103;51.340;12.326;2024-03-07T14:37:45;13.13;;;10.25;;
15996;SDS011;8103;51.340;12.326;2024-03-07T14:40:18;12.13;;;9.50;;
15996;SDS011;8103;51.340;12.326;2024-03-07T14:42:47;14.05;;;11.20;;
15996;SDS011;8103;51.340;12.326;2024-03-07T14:45:19;12.23;;;9.40;;
15996;SDS011;8103;51.340;12.326;2024-03-07T14:47:50;14.40;;;10.57;;
15996;SDS011;8103;51.340;12.326;2024-03-07T14:50:21;13.18;;;10.20;;
15996;SDS011;8103;51.340;12.326;2024-03-07T14:52:50;12.25;;;9.88;;
15996;SDS011;8103;51.340;12.326;2024-03-07T14:55:17;13.02;;;10.82;;
15996;SDS011;8103;51.340;12.326;2024-03-07T14:57:45;13.52;;;10.25;;
15996;SDS011;8103;51.340;12.326;2024-03-07T15:00:12;13.85;;;11.00;;
15996;SDS011;8103;51.340;12.326;2024-03-07T15:02:51;13.13;;;10.32;;
15996;SDS011;8103;51.340;12.326;2024-03-07T15:05:17;14.02;;;9.90;;
15996;SDS011;8103;51.340;12.326;2024-03-07T15:07:46;12.85;;;9.77;;